Time;durP1;ratioP1;P1;durP2;ratioP2;P2;SDS_P1;SDS_P2;PMS_P1;PMS_P2;Temp;Humidity;BMP_temperature;BMP_pressure;BME280_temperature;BME280_humidity;BME280_pressure;Samples;Min_cycle;Max_cycle;Signal;HPM_P1;HPM_P2
2021/05/31 00:01:10;;;;;;;9.80;3.50;;;;;;;;;;5048760;28;20078;-62
2021/05/31 00:03:35;;;;;;;12.23;3.10;;;;;;;;;;5049239;28;20282;-64
2021/05/31 00:06:00;;;;;;;6.50;3.20;;;;;;;;;;5048352;28;20058;-65
2021/05/31 00:08:26;;;;;;;3.37;2.60;;;;;;;;;;5048736;28;20641;-64
2021/05/31 00:10:51;;;;;;;5.97;2.90;;;;;;;;;;5049206;28;20275;-65
2021/05/31 00:13:17;;;;;;;7.35;3.13;;;;;;;;;;5046761;28;20347;-66
2021/05/31 00:15:42;;;;;;;6.35;3.20;;;;;;;;;;5047486;28;20078;-64
2021/05/31 00:18:07;;;;;;;7.28;3.28;;;;;;;;;;5046346;28;20089;-65
2021/05/31 00:20:33;;;;;;;5.73;3.40;;;;;;;;;;5046175;28;20442;-66
2021/05/31 00:22:58;;;;;;;5.72;3.15;;;;;;;;;;5047451;28;20314;-65
2021/05/31 00:25:24;;;;;;;10.43;4.07;;;;;;;;;;5046544;28;20031;-62
2021/05/31 00:27:49;;;;;;;8.45;3.03;;;;;;;;;;5049547;28;20268;-62
2021/05/31 00:30:15;;;;;;;9.43;3.67;;;;;;;;;;5050720;28;20505;-62
2021/05/31 00:32:40;;;;;;;9.80;3.42;;;;;;;;;;5033352;28;20629;-63
2021/05/31 00:35:06;;;;;;;11.85;3.40;;;;;;;;;;5049496;28;20037;-63
2021/05/31 00:37:32;;;;;;;6.35;3.45;;;;;;;;;;5045520;28;20033;-62
2021/05/31 00:39:57;;;;;;;8.50;3.53;;;;;;;;;;5046385;28;20021;-65
2021/05/31 00:42:22;;;;;;;9.30;3.40;;;;;;;;;;5028425;28;20020;-62
2021/05/31 00:44:47;;;;;;;4.68;3.47;;;;;;;;;;5045768;28;20822;-67
2021/05/31 00:47:13;;;;;;;8.70;3.87;;;;;;;;;;5046632;28;20055;-65
2021/05/31 00:49:38;;;;;;;7.43;3.60;;;;;;;;;;5044513;28;20823;-65
2021/05/31 00:52:05;;;;;;;6.30;3.50;;;;;;;;;;5026614;28;20272;-66
2021/05/31 00:54:30;;;;;;;7.28;3.20;;;;;;;;;;5046000;28;20025;-65
2021/05/31 00:56:55;;;;;;;6.55;3.08;;;;;;;;;;5046642;28;20028;-64
2021/05/31 00:59:20;;;;;;;4.90;3.42;;;;;;;;;;5026231;28;20028;-68
2021/05/31 01:01:48;;;;;;;6.80;3.43;;;;;;;;;;5045980;28;20078;-64
2021/05/31 01:04:13;;;;;;;7.25;3.50;;;;;;;;;;5045718;28;20819;-64
2021/05/31 01:06:41;;;;;;;8.23;3.63;;;;;;;;;;5045352;28;20020;-64
2021/05/31 01:09:27;;;;;;;7.47;4.15;;;;;;;;;;5044203;28;20017;-65
2021/05/31 01:12:06;;;;;;;6.25;3.40;;;;;;;;;;5045536;28;20021;-64
2021/05/31 01:14:40;;;;;;;9.88;3.30;;;;;;;;;;5046141;28;20032;-65
2021/05/31 01:17:08;;;;;;;6.03;3.20;;;;;;;;;;5043549;28;20115;-62
2021/05/31 01:19:48;;;;;;;5.13;3.17;;;;;;;;;;5046522;28;20029;-65
2021/05/31 01:22:14;;;;;;;7.47;3.42;;;;;;;;;;5046148;28;20021;-65
2021/05/31 01:24:42;;;;;;;8.43;3.92;;;;;;;;;;5046326;28;20036;-65
2021/05/31 01:27:23;;;;;;;5.25;3.30;;;;;;;;;;5046578;28;20028;-65
2021/05/31 01:30:04;;;;;;;9.00;3.65;;;;;;;;;;5046859;28;20521;-64
2021/05/31 01:32:36;;;;;;;6.97;3.80;;;;;;;;;;5050445;28;20028;-66
2021/05/31 01:35:05;;;;;;;5.88;3.60;;;;;;;;;;5046983;28;20024;-63
2021/05/31 01:37:32;;;;;;;6.28;3.35;;;;;;;;;;5044702;28;20088;-64
2021/05/31 01:40:00;;;;;;;6.75;3.88;;;;;;;;;;5046184;28;20117;-67
2021/05/31 01:42:26;;;;;;;8.02;3.72;;;;;;;;;;5046102;28;20568;-64
2021/05/31 01:44:52;;;;;;;11.52;3.95;;;;;;;;;;5045765;28;20029;-64
2021/05/31 01:47:18;;;;;;;4.68;3.10;;;;;;;;;;5046903;28;20025;-62
2021/05/31 01:49:44;;;;;;;6.03;3.78;;;;;;;;;;5044511;28;20112;-63
2021/05/31 01:52:10;;;;;;;4.70;3.28;;;;;;;;;;5046112;28;20033;-63
2021/05/31 01:54:36;;;;;;;7.40;4.45;;;;;;;;;;5046851;28;20040;-63
2021/05/31 01:57:01;;;;;;;8.32;3.97;;;;;;;;;;5046283;28;20021;-64
2021/05/31 01:59:27;;;;;;;9.25;3.90;;;;;;;;;;5046936;28;20021;-62
2021/05/31 02:01:52;;;;;;;10.32;4.35;;;;;;;;;;5046354;28;20037;-63
2021/05/31 02:04:18;;;;;;;5.28;3.72;;;;;;;;;;5045921;28;20027;-63
2021/05/31 02:06:43;;;;;;;9.45;3.63;;;;;;;;;;5045725;28;20033;-62
2021/05/31 02:09:08;;;;;;;9.43;3.85;;;;;;;;;;5046467;28;20017;-62
2021/05/31 02:11:41;;;;;;;10.17;4.40;;;;;;;;;;5045173;28;20028;-62
2021/05/31 02:14:09;;;;;;;8.13;3.78;;;;;;;;;;5047306;28;20263;-66
2021/05/31 02:16:40;;;;;;;9.50;5.38;;;;;;;;;;5050138;28;20024;-64
2021/05/31 02:19:05;;;;;;;9.20;3.92;;;;;;;;;;5048457;28;20034;-65
2021/05/31 02:21:33;;;;;;;9.68;4.28;;;;;;;;;;5049528;28;20446;-64
2021/05/31 02:23:58;;;;;;;8.38;4.20;;;;;;;;;;5050488;28;20021;-64
2021/05/31 02:26:24;;;;;;;8.35;4.00;;;;;;;;;;5048844;28;20017;-64
2021/05/31 02:28:49;;;;;;;7.90;4.25;;;;;;;;;;5048045;28;20387;-67
2021/05/31 02:31:15;;;;;;;8.45;4.05;;;;;;;;;;5047109;28;20033;-64
2021/05/31 02:33:40;;;;;;;8.95;4.43;;;;;;;;;;5051493;28;20033;-64
2021/05/31 02:36:06;;;;;;;6.47;3.83;;;;;;;;;;5052382;28;20040;-63
2021/05/31 02:38:32;;;;;;;8.75;4.78;;;;;;;;;;5049923;28;20063;-64
2021/05/31 02:40:57;;;;;;;5.63;3.88;;;;;;;;;;5049001;28;20025;-63
2021/05/31 02:43:23;;;;;;;9.00;4.47;;;;;;;;;;5049639;28;20071;-62
2021/05/31 02:45:48;;;;;;;7.72;4.53;;;;;;;;;;5047408;28;20391;-62
2021/05/31 02:48:13;;;;;;;8.63;4.95;;;;;;;;;;5047816;28;20017;-64
2021/05/31 02:50:39;;;;;;;7.50;4.35;;;;;;;;;;5047249;28;20506;-62
2021/05/31 02:53:05;;;;;;;9.50;4.25;;;;;;;;;;5048465;28;20017;-63
2021/05/31 02:55:31;;;;;;;7.38;4.20;;;;;;;;;;5047715;28;20020;-65
2021/05/31 02:57:57;;;;;;;7.90;4.60;;;;;;;;;;5048330;28;20422;-63
2021/05/31 03:00:23;;;;;;;9.15;4.85;;;;;;;;;;5048508;28;20024;-64
2021/05/31 03:02:48;;;;;;;7.72;4.82;;;;;;;;;;5049443;28;20051;-65
2021/05/31 03:05:19;;;;;;;10.20;4.97;;;;;;;;;;5048517;28;20048;-61
2021/05/31 03:07:44;;;;;;;11.15;4.22;;;;;;;;;;5048237;28;20009;-64
2021/05/31 03:10:10;;;;;;;13.65;4.63;;;;;;;;;;5048055;28;20025;-62
2021/05/31 03:12:36;;;;;;;13.70;4.82;;;;;;;;;;5048535;28;20497;-62
2021/05/31 03:15:02;;;;;;;8.25;4.95;;;;;;;;;;5048225;28;20029;-62
2021/05/31 03:17:27;;;;;;;7.93;4.47;;;;;;;;;;5048909;28;20071;-64
2021/05/31 03:19:53;;;;;;;15.13;5.40;;;;;;;;;;5048065;28;20021;-64
2021/05/31 03:22:18;;;;;;;9.32;4.82;;;;;;;;;;5047885;28;20021;-63
2021/05/31 03:24:43;;;;;;;10.32;5.18;;;;;;;;;;5047554;28;20017;-62
2021/05/31 03:27:08;;;;;;;10.45;5.28;;;;;;;;;;5047954;28;20036;-62
2021/05/31 03:29:34;;;;;;;14.10;4.88;;;;;;;;;;5048299;28;20045;-63
2021/05/31 03:32:00;;;;;;;11.50;5.32;;;;;;;;;;5048682;28;20025;-64
2021/05/31 03:34:25;;;;;;;9.52;4.88;;;;;;;;;;5047320;28;20032;-62
2021/05/31 03:36:50;;;;;;;13.93;5.53;;;;;;;;;;5040663;28;20075;-63
2021/05/31 03:39:16;;;;;;;10.35;5.13;;;;;;;;;;5045189;28;20033;-63
2021/05/31 03:41:41;;;;;;;14.15;5.95;;;;;;;;;;5048255;28;20132;-64
2021/05/31 03:44:07;;;;;;;10.18;4.80;;;;;;;;;;5047240;28;20033;-62
2021/05/31 03:46:32;;;;;;;11.35;5.22;;;;;;;;;;5048676;28;20032;-62
2021/05/31 03:48:57;;;;;;;8.90;4.78;;;;;;;;;;5046541;28;20470;-62
2021/05/31 03:51:22;;;;;;;8.97;4.70;;;;;;;;;;5048176;28;20017;-62
2021/05/31 03:53:48;;;;;;;10.55;5.32;;;;;;;;;;5046023;28;20291;-63
2021/05/31 03:56:13;;;;;;;11.05;5.30;;;;;;;;;;5047158;28;20065;-62
2021/05/31 03:58:40;;;;;;;10.30;5.22;;;;;;;;;;5048397;28;20485;-63
2021/05/31 04:01:06;;;;;;;9.27;5.03;;;;;;;;;;5046844;28;20074;-62
2021/05/31 04:03:31;;;;;;;10.93;4.88;;;;;;;;;;5047351;28;20025;-63
2021/05/31 04:06:12;;;;;;;13.52;5.07;;;;;;;;;;5047128;28;20020;-62
2021/05/31 04:11:37;;;;;;;11.35;5.47;;;;;;;;;;5048244;28;20067;-63
2021/05/31 04:14:22;;;;;;;11.88;5.55;;;;;;;;;;5047236;28;20040;-62
2021/05/31 04:16:48;;;;;;;10.77;4.75;;;;;;;;;;5046730;28;20037;-64
2021/05/31 04:19:15;;;;;;;12.32;5.72;;;;;;;;;;5047176;28;20031;-64
2021/05/31 04:21:42;;;;;;;10.68;5.20;;;;;;;;;;5046723;28;20059;-64
2021/05/31 04:24:07;;;;;;;9.75;4.75;;;;;;;;;;5029722;28;20382;-64
2021/05/31 04:26:33;;;;;;;11.52;5.30;;;;;;;;;;5046623;28;20024;-66
2021/05/31 04:28:58;;;;;;;11.48;5.90;;;;;;;;;;5046691;28;20554;-64
2021/05/31 04:31:24;;;;;;;13.27;5.05;;;;;;;;;;5047398;28;20036;-64
2021/05/31 04:33:49;;;;;;;8.85;4.78;;;;;;;;;;5046920;28;20115;-66
2021/05/31 04:36:14;;;;;;;9.20;5.20;;;;;;;;;;5047358;28;20032;-64
2021/05/31 04:38:40;;;;;;;7.03;4.73;;;;;;;;;;5049575;28;20441;-64
2021/05/31 04:41:05;;;;;;;7.45;4.70;;;;;;;;;;5049783;28;20297;-65
2021/05/31 04:43:31;;;;;;;8.32;4.68;;;;;;;;;;5046992;28;20028;-64
2021/05/31 04:45:56;;;;;;;9.20;4.45;;;;;;;;;;5043699;28;20120;-66
2021/05/31 04:48:21;;;;;;;7.95;4.82;;;;;;;;;;5044104;28;20024;-64
2021/05/31 04:50:46;;;;;;;8.30;5.13;;;;;;;;;;5044350;28;20024;-66
2021/05/31 04:53:12;;;;;;;10.45;5.20;;;;;;;;;;5046277;28;20725;-65
2021/05/31 04:55:38;;;;;;;9.70;5.07;;;;;;;;;;5045547;28;20017;-66
2021/05/31 04:58:03;;;;;;;8.95;5.07;;;;;;;;;;5046212;28;20017;-64
2021/05/31 05:00:29;;;;;;;8.20;4.60;;;;;;;;;;5045159;28;20063;-64
2021/05/31 05:02:54;;;;;;;7.15;4.75;;;;;;;;;;5045925;28;20037;-64
2021/05/31 05:05:19;;;;;;;6.53;4.67;;;;;;;;;;5046430;28;20293;-67
2021/05/31 05:07:45;;;;;;;8.30;4.90;;;;;;;;;;5045682;28;20275;-66
2021/05/31 05:10:12;;;;;;;11.82;5.30;;;;;;;;;;5043534;28;20017;-66
2021/05/31 05:12:37;;;;;;;7.55;5.13;;;;;;;;;;5045041;28;20028;-64
2021/05/31 05:15:02;;;;;;;11.23;5.30;;;;;;;;;;5043510;28;20028;-64
2021/05/31 05:17:28;;;;;;;11.40;5.40;;;;;;;;;;5045444;28;20703;-66
2021/05/31 05:19:53;;;;;;;13.43;7.00;;;;;;;;;;5044964;28;20029;-65
2021/05/31 05:22:18;;;;;;;19.57;9.00;;;;;;;;;;5044456;28;20025;-64
2021/05/31 05:24:43;;;;;;;14.35;8.05;;;;;;;;;;5044661;28;20859;-63
2021/05/31 05:27:09;;;;;;;14.83;7.40;;;;;;;;;;5045035;28;20032;-63
2021/05/31 05:29:34;;;;;;;18.13;7.85;;;;;;;;;;5045054;28;20907;-62
2021/05/31 05:32:00;;;;;;;12.65;7.88;;;;;;;;;;5044340;28;20730;-64
2021/05/31 05:34:25;;;;;;;12.27;6.18;;;;;;;;;;5044359;28;20070;-63
2021/05/31 05:39:29;;;;;;;10.38;6.30;;;;;;;;;;5043507;28;20108;-66
2021/05/31 05:46:49;;;;;;;13.45;6.35;;;;;;;;;;5059074;28;20031;-66
2021/05/31 05:49:15;;;;;;;13.63;6.30;;;;;;;;;;5064421;28;20440;-67
2021/05/31 05:51:40;;;;;;;8.73;5.93;;;;;;;;;;5065848;28;20040;-69
2021/05/31 05:54:05;;;;;;;11.05;5.53;;;;;;;;;;5068333;28;20358;-66
2021/05/31 05:56:31;;;;;;;14.63;6.40;;;;;;;;;;5067843;28;20020;-66
2021/05/31 05:58:56;;;;;;;13.32;7.10;;;;;;;;;;5069929;28;20032;-68
2021/05/31 06:01:22;;;;;;;17.73;6.90;;;;;;;;;;5068582;28;20254;-66
2021/05/31 06:03:53;;;;;;;17.23;8.10;;;;;;;;;;5068438;28;20024;-66
2021/05/31 06:06:20;;;;;;;12.13;6.20;;;;;;;;;;5068560;28;20028;-66
2021/05/31 06:08:45;;;;;;;16.50;6.05;;;;;;;;;;5068381;28;20028;-66
2021/05/31 06:11:10;;;;;;;11.15;6.10;;;;;;;;;;5066391;28;20028;-66
2021/05/31 06:13:36;;;;;;;12.57;6.80;;;;;;;;;;5066083;28;20339;-69
2021/05/31 06:16:01;;;;;;;15.77;6.45;;;;;;;;;;5067825;28;20028;-68
2021/05/31 06:18:27;;;;;;;13.38;5.82;;;;;;;;;;5066575;28;20150;-69
2021/05/31 06:20:53;;;;;;;9.88;5.90;;;;;;;;;;5068177;28;20630;-68
2021/05/31 06:23:18;;;;;;;10.30;5.60;;;;;;;;;;5054407;28;20024;-66
2021/05/31 06:25:43;;;;;;;12.63;5.95;;;;;;;;;;5073046;28;20034;-68
2021/05/31 06:28:08;;;;;;;12.50;6.20;;;;;;;;;;5075161;28;20051;-66
2021/05/31 06:30:34;;;;;;;10.20;5.10;;;;;;;;;;5068416;28;20512;-67
2021/05/31 06:33:00;;;;;;;15.35;5.47;;;;;;;;;;5066176;28;20716;-69
2021/05/31 06:35:25;;;;;;;12.50;6.33;;;;;;;;;;5067966;28;20099;-66
2021/05/31 06:37:51;;;;;;;10.57;5.60;;;;;;;;;;5066350;28;20263;-66
2021/05/31 06:40:16;;;;;;;10.80;6.22;;;;;;;;;;5067844;28;20020;-68
2021/05/31 06:42:42;;;;;;;12.70;5.30;;;;;;;;;;5071331;28;20055;-66
2021/05/31 06:45:09;;;;;;;13.45;5.65;;;;;;;;;;5068999;28;20020;-69
2021/05/31 06:47:35;;;;;;;13.52;5.93;;;;;;;;;;5067349;28;20032;-69
2021/05/31 06:50:00;;;;;;;14.52;6.25;;;;;;;;;;5066186;28;20016;-66
2021/05/31 06:52:25;;;;;;;7.80;5.03;;;;;;;;;;5068068;28;20036;-68
2021/05/31 06:54:51;;;;;;;8.88;4.85;;;;;;;;;;5067094;28;20314;-65
2021/05/31 06:57:16;;;;;;;10.98;6.03;;;;;;;;;;5067811;28;20071;-66
2021/05/31 06:59:41;;;;;;;14.20;5.70;;;;;;;;;;5068373;28;20108;-65
2021/05/31 07:02:06;;;;;;;12.90;5.93;;;;;;;;;;5067841;28;20278;-66
2021/05/31 07:04:31;;;;;;;8.73;5.57;;;;;;;;;;5067056;28;20443;-65
2021/05/31 07:06:57;;;;;;;9.40;5.50;;;;;;;;;;5065259;28;20027;-67
2021/05/31 07:09:22;;;;;;;7.80;5.28;;;;;;;;;;5067533;28;20683;-69
2021/05/31 07:11:47;;;;;;;13.40;5.40;;;;;;;;;;5066462;28;20397;-69
2021/05/31 07:14:18;;;;;;;12.10;5.00;;;;;;;;;;5067382;28;20305;-66
2021/05/31 07:16:44;;;;;;;11.60;4.78;;;;;;;;;;5066829;28;20030;-66
2021/05/31 07:19:10;;;;;;;13.93;4.55;;;;;;;;;;5067859;28;20381;-68
2021/05/31 07:21:35;;;;;;;12.60;5.45;;;;;;;;;;5048508;28;20029;-66
2021/05/31 07:24:00;;;;;;;9.35;4.80;;;;;;;;;;5067786;28;20394;-68
2021/05/31 07:26:25;;;;;;;13.40;4.65;;;;;;;;;;5067260;28;20397;-70
2021/05/31 07:28:50;;;;;;;7.03;4.13;;;;;;;;;;5067367;28;20397;-66
2021/05/31 07:31:15;;;;;;;9.43;4.40;;;;;;;;;;5067322;28;20314;-68
2021/05/31 07:33:41;;;;;;;13.73;4.77;;;;;;;;;;5066322;28;20332;-70
2021/05/31 07:36:06;;;;;;;10.97;4.60;;;;;;;;;;5067256;28;20307;-66
2021/05/31 07:38:31;;;;;;;8.18;4.28;;;;;;;;;;5067027;28;20271;-66
2021/05/31 07:40:56;;;;;;;9.83;4.90;;;;;;;;;;5066939;28;20044;-67
2021/05/31 07:43:21;;;;;;;8.10;4.07;;;;;;;;;;5065931;28;20025;-70
2021/05/31 07:45:47;;;;;;;7.72;4.53;;;;;;;;;;5069696;28;20680;-67
2021/05/31 07:48:12;;;;;;;6.78;3.47;;;;;;;;;;5068768;28;20100;-69
2021/05/31 07:50:38;;;;;;;6.45;3.90;;;;;;;;;;5066444;28;20021;-69
2021/05/31 07:53:03;;;;;;;7.13;3.53;;;;;;;;;;5066910;28;20044;-67
2021/05/31 07:55:28;;;;;;;8.47;3.33;;;;;;;;;;5066814;28;20025;-69
2021/05/31 07:57:54;;;;;;;8.18;3.92;;;;;;;;;;5066240;28;20050;-67
2021/05/31 08:00:21;;;;;;;9.32;3.83;;;;;;;;;;5066008;28;20032;-68
2021/05/31 08:02:47;;;;;;;6.40;3.22;;;;;;;;;;5064407;28;20024;-70
2021/05/31 08:05:14;;;;;;;6.47;3.60;;;;;;;;;;5067005;28;20379;-70
2021/05/31 08:07:39;;;;;;;9.90;3.80;;;;;;;;;;5066205;28;20008;-71
2021/05/31 08:10:05;;;;;;;7.45;3.53;;;;;;;;;;5065029;28;20030;-67
2021/05/31 08:12:30;;;;;;;4.60;3.30;;;;;;;;;;5062922;28;20013;-66
2021/05/31 08:14:58;;;;;;;8.40;3.50;;;;;;;;;;5065239;28;20514;-69
2021/05/31 08:17:23;;;;;;;17.75;4.22;;;;;;;;;;5065159;28;20025;-70
2021/05/31 08:19:48;;;;;;;36.47;4.20;;;;;;;;;;5065941;28;20028;-67
2021/05/31 08:22:13;;;;;;;11.17;4.27;;;;;;;;;;5066204;28;20416;-69
2021/05/31 08:24:38;;;;;;;10.67;2.97;;;;;;;;;;5064208;28;20035;-68
2021/05/31 08:27:04;;;;;;;11.15;3.13;;;;;;;;;;5066347;28;20112;-68
2021/05/31 08:29:29;;;;;;;10.90;3.08;;;;;;;;;;5066862;28;20016;-67
2021/05/31 08:31:56;;;;;;;8.00;3.20;;;;;;;;;;5065401;28;20079;-67
2021/05/31 08:34:23;;;;;;;6.43;3.10;;;;;;;;;;5066060;28;20250;-70
2021/05/31 08:36:48;;;;;;;7.38;4.13;;;;;;;;;;5066959;28;20467;-67
2021/05/31 08:39:13;;;;;;;6.83;3.80;;;;;;;;;;5065515;28;20101;-68
2021/05/31 08:41:39;;;;;;;11.52;4.78;;;;;;;;;;5064634;28;20087;-69
2021/05/31 08:44:04;;;;;;;9.55;4.05;;;;;;;;;;5066192;28;20016;-69
2021/05/31 08:46:29;;;;;;;7.88;3.63;;;;;;;;;;5065804;28;20074;-66
2021/05/31 08:48:55;;;;;;;8.60;3.30;;;;;;;;;;5070153;28;20062;-67
2021/05/31 08:51:21;;;;;;;6.63;3.60;;;;;;;;;;5066423;28;20262;-70
2021/05/31 08:53:47;;;;;;;8.50;3.45;;;;;;;;;;5065487;28;20028;-69
2021/05/31 08:56:12;;;;;;;10.88;3.40;;;;;;;;;;5065126;28;20461;-66
2021/05/31 08:58:37;;;;;;;7.32;3.50;;;;;;;;;;5065571;28;20020;-68
2021/05/31 09:01:03;;;;;;;9.68;3.75;;;;;;;;;;5064568;28;20024;-71
2021/05/31 09:03:28;;;;;;;14.50;3.53;;;;;;;;;;5065529;28;20020;-70
2021/05/31 09:05:58;;;;;;;5.50;3.35;;;;;;;;;;5065527;28;20027;-67
2021/05/31 09:08:23;;;;;;;12.60;2.88;;;;;;;;;;5064838;28;20012;-69
2021/05/31 09:10:55;;;;;;;7.97;3.15;;;;;;;;;;5063264;28;20043;-67
2021/05/31 09:13:28;;;;;;;7.32;4.38;;;;;;;;;;5065853;28;20475;-69
2021/05/31 09:16:02;;;;;;;8.95;3.88;;;;;;;;;;5064434;28;20025;-67
2021/05/31 09:18:27;;;;;;;6.57;3.75;;;;;;;;;;5065000;28;20098;-71
2021/05/31 09:20:52;;;;;;;5.53;4.10;;;;;;;;;;5064935;28;20470;-71
2021/05/31 09:23:18;;;;;;;6.77;2.97;;;;;;;;;;5063853;28;20030;-67
2021/05/31 09:25:44;;;;;;;5.32;3.40;;;;;;;;;;5065610;28;20351;-67
2021/05/31 09:28:13;;;;;;;8.03;3.27;;;;;;;;;;5065062;28;20038;-70
2021/05/31 09:30:39;;;;;;;6.78;4.10;;;;;;;;;;5064387;28;20461;-67
2021/05/31 09:33:09;;;;;;;8.60;3.70;;;;;;;;;;5064407;28;20051;-69
2021/05/31 09:35:37;;;;;;;8.05;3.70;;;;;;;;;;5065850;28;20099;-70
2021/05/31 09:38:02;;;;;;;6.15;4.03;;;;;;;;;;5065655;28;20040;-67
2021/05/31 09:40:28;;;;;;;8.70;4.13;;;;;;;;;;5064187;28;20051;-68
2021/05/31 09:42:54;;;;;;;11.43;3.80;;;;;;;;;;5064939;28;20474;-71
2021/05/31 09:45:20;;;;;;;7.25;4.00;;;;;;;;;;5063615;28;20024;-68
2021/05/31 09:47:45;;;;;;;8.45;4.00;;;;;;;;;;5064660;28;20019;-71
2021/05/31 09:50:11;;;;;;;8.05;4.18;;;;;;;;;;5065641;28;20100;-70
2021/05/31 09:52:37;;;;;;;9.40;3.92;;;;;;;;;;5064378;28;20103;-69
2021/05/31 09:55:03;;;;;;;10.85;4.50;;;;;;;;;;5064650;28;20107;-70
2021/05/31 09:57:29;;;;;;;8.27;4.47;;;;;;;;;;5063554;28;20123;-70
2021/05/31 10:00:00;;;;;;;7.47;4.25;;;;;;;;;;5065253;28;21198;-70
2021/05/31 10:05:10;;;;;;;11.52;3.97;;;;;;;;;;5064540;28;20035;-70
2021/05/31 10:10:30;;;;;;;6.55;3.72;;;;;;;;;;5008043;28;20080;-67
2021/05/31 10:12:56;;;;;;;7.57;3.78;;;;;;;;;;5065903;28;20111;-70
2021/05/31 10:15:24;;;;;;;7.13;3.50;;;;;;;;;;5064295;28;20446;-67
2021/05/31 10:17:51;;;;;;;6.68;4.20;;;;;;;;;;5065196;28;20274;-67
2021/05/31 10:20:17;;;;;;;7.88;3.40;;;;;;;;;;5062658;28;20024;-67
2021/05/31 10:22:42;;;;;;;10.13;3.83;;;;;;;;;;5063282;28;20025;-69
2021/05/31 10:25:08;;;;;;;10.13;3.25;;;;;;;;;;5063844;28;20075;-71
2021/05/31 10:27:34;;;;;;;6.78;3.58;;;;;;;;;;5064834;28;20378;-67
2021/05/31 10:30:00;;;;;;;7.57;4.30;;;;;;;;;;5065141;28;20036;-67
2021/05/31 10:32:26;;;;;;;7.88;3.85;;;;;;;;;;5063985;28;20166;-67
2021/05/31 10:34:53;;;;;;;10.18;3.55;;;;;;;;;;5065732;28;20111;-68
2021/05/31 10:37:24;;;;;;;8.43;3.60;;;;;;;;;;5067427;28;20020;-71
2021/05/31 10:40:07;;;;;;;8.30;3.92;;;;;;;;;;5067335;28;20017;-69
2021/05/31 10:42:51;;;;;;;8.35;3.70;;;;;;;;;;5067064;28;20020;-67
2021/05/31 10:45:25;;;;;;;10.73;3.85;;;;;;;;;;5067779;28;20431;-72
2021/05/31 10:48:13;;;;;;;7.07;3.45;;;;;;;;;;5068364;28;20029;-69
2021/05/31 10:50:49;;;;;;;5.63;3.58;;;;;;;;;;5057293;28;20440;-69
2021/05/31 10:53:18;;;;;;;7.97;4.68;;;;;;;;;;5067833;28;20066;-69
2021/05/31 10:55:55;;;;;;;8.60;4.07;;;;;;;;;;5066790;28;20509;-67
2021/05/31 10:58:22;;;;;;;6.95;3.42;;;;;;;;;;5068617;28;20016;-70
2021/05/31 11:00:52;;;;;;;14.32;3.30;;;;;;;;;;5066723;28;20028;-69
2021/05/31 11:03:17;;;;;;;5.82;3.30;;;;;;;;;;5066381;28;20028;-69
2021/05/31 11:05:42;;;;;;;7.25;3.90;;;;;;;;;;5067129;28;20023;-67
2021/05/31 11:08:08;;;;;;;7.33;3.13;;;;;;;;;;5068088;28;20025;-68
2021/05/31 11:10:35;;;;;;;8.25;3.42;;;;;;;;;;5067510;28;20266;-70
2021/05/31 11:13:29;;;;;;;8.73;3.42;;;;;;;;;;5067087;28;20020;-67
2021/05/31 11:16:05;;;;;;;7.40;3.42;;;;;;;;;;5041371;28;20564;-67
2021/05/31 11:18:40;;;;;;;10.05;3.10;;;;;;;;;;5066905;28;20067;-71
2021/05/31 11:21:06;;;;;;;4.82;3.15;;;;;;;;;;5066060;28;20099;-71
2021/05/31 11:23:31;;;;;;;5.00;3.40;;;;;;;;;;5067863;28;20028;-69
2021/05/31 11:25:58;;;;;;;7.57;3.40;;;;;;;;;;5067350;28;20027;-68
2021/05/31 11:28:24;;;;;;;6.80;3.65;;;;;;;;;;5068715;28;20017;-67
2021/05/31 11:30:50;;;;;;;6.80;3.42;;;;;;;;;;5066615;28;20013;-67
2021/05/31 11:33:16;;;;;;;8.95;3.60;;;;;;;;;;5066367;28;20027;-69
2021/05/31 11:35:43;;;;;;;8.60;3.55;;;;;;;;;;5066662;28;20024;-71
2021/05/31 11:38:08;;;;;;;7.13;3.72;;;;;;;;;;5067044;28;20031;-67
2021/05/31 11:40:36;;;;;;;3.93;3.13;;;;;;;;;;5065979;28;20016;-70
2021/05/31 11:43:03;;;;;;;8.65;3.17;;;;;;;;;;5059671;23;20338;-85
2021/05/31 11:45:35;;;;;;;6.40;3.72;;;;;;;;;;5024290;28;20025;-89
2021/05/31 11:48:01;;;;;;;6.22;3.05;;;;;;;;;;5074912;23;20043;-64
2021/05/31 11:50:27;;;;;;;7.57;3.55;;;;;;;;;;5058381;28;20019;-64
2021/05/31 11:52:53;;;;;;;8.65;2.40;;;;;;;;;;5071762;28;20016;-64
2021/05/31 11:55:25;;;;;;;6.57;3.13;;;;;;;;;;5075057;28;20521;-64
2021/05/31 11:57:50;;;;;;;10.05;3.80;;;;;;;;;;5071564;28;20114;-64
2021/05/31 12:00:23;;;;;;;7.97;3.42;;;;;;;;;;5078796;28;20518;-64
2021/05/31 12:02:48;;;;;;;6.07;3.20;;;;;;;;;;5073164;28;20033;-64
2021/05/31 12:05:14;;;;;;;8.38;3.28;;;;;;;;;;5072484;28;20531;-64
2021/05/31 12:07:43;;;;;;;8.77;3.25;;;;;;;;;;5077851;28;20470;-64
2021/05/31 12:10:09;;;;;;;8.00;2.75;;;;;;;;;;5080305;28;20028;-64
2021/05/31 12:12:34;;;;;;;6.05;2.80;;;;;;;;;;5075850;28;20028;-64
2021/05/31 12:14:59;;;;;;;10.63;3.03;;;;;;;;;;5074095;28;20086;-64
2021/05/31 12:17:26;;;;;;;5.77;3.07;;;;;;;;;;5079001;28;20259;-64
2021/05/31 12:19:52;;;;;;;8.95;3.17;;;;;;;;;;5072461;28;20601;-64
2021/05/31 12:22:17;;;;;;;8.40;3.60;;;;;;;;;;5076679;28;20031;-64
2021/05/31 12:24:44;;;;;;;5.30;2.97;;;;;;;;;;5076007;28;20364;-64
2021/05/31 12:27:09;;;;;;;7.18;2.90;;;;;;;;;;5073152;28;20016;-64
2021/05/31 12:29:35;;;;;;;7.88;3.00;;;;;;;;;;5055421;28;20089;-64
2021/05/31 12:32:02;;;;;;;4.90;2.90;;;;;;;;;;5076050;28;20032;-64
2021/05/31 12:34:27;;;;;;;9.02;4.07;;;;;;;;;;5073561;28;20066;-64
2021/05/31 12:36:52;;;;;;;3.88;2.95;;;;;;;;;;5076476;28;20197;-64
2021/05/31 12:39:18;;;;;;;5.22;3.08;;;;;;;;;;5072993;28;20032;-64
2021/05/31 12:41:44;;;;;;;4.57;2.83;;;;;;;;;;5073852;28;20024;-64
2021/05/31 12:44:09;;;;;;;6.47;2.92;;;;;;;;;;5072927;28;20027;-64
2021/05/31 12:46:38;;;;;;;8.33;3.47;;;;;;;;;;5072752;28;20481;-64
2021/05/31 12:49:04;;;;;;;6.18;3.35;;;;;;;;;;5074809;28;20279;-64
2021/05/31 12:51:29;;;;;;;4.75;2.65;;;;;;;;;;5079867;28;20024;-64
2021/05/31 12:53:58;;;;;;;16.80;3.47;;;;;;;;;;5079283;28;20051;-64
2021/05/31 12:56:28;;;;;;;7.38;3.33;;;;;;;;;;5075697;28;20293;-64
2021/05/31 12:59:14;;;;;;;12.10;2.92;;;;;;;;;;5079573;28;20554;-64
2021/05/31 13:01:43;;;;;;;18.77;3.33;;;;;;;;;;5072258;28;20051;-64
2021/05/31 13:04:08;;;;;;;7.93;2.50;;;;;;;;;;5077802;28;20027;-64
2021/05/31 13:06:34;;;;;;;9.65;2.97;;;;;;;;;;5074912;28;20031;-64
2021/05/31 13:09:00;;;;;;;6.43;2.47;;;;;;;;;;5076953;28;20030;-64
2021/05/31 13:11:25;;;;;;;6.68;2.90;;;;;;;;;;5073937;28;20021;-64
2021/05/31 13:13:50;;;;;;;7.72;3.35;;;;;;;;;;5076992;28;20462;-64
2021/05/31 13:16:25;;;;;;;5.50;3.45;;;;;;;;;;5078274;28;20025;-64
2021/05/31 13:18:50;;;;;;;6.75;2.97;;;;;;;;;;5070107;28;20036;-64
2021/05/31 13:21:16;;;;;;;9.27;2.40;;;;;;;;;;5073801;28;20069;-64
2021/05/31 13:23:42;;;;;;;6.00;3.35;;;;;;;;;;5072204;28;20637;-64
2021/05/31 13:26:15;;;;;;;4.43;2.95;;;;;;;;;;5070761;28;20070;-64
2021/05/31 13:28:41;;;;;;;11.82;3.22;;;;;;;;;;5078692;28;20024;-64
2021/05/31 13:31:07;;;;;;;3.53;2.53;;;;;;;;;;5073701;28;20018;-65
2021/05/31 13:33:33;;;;;;;9.82;3.65;;;;;;;;;;5070803;28;20038;-64
2021/05/31 13:36:10;;;;;;;5.70;2.88;;;;;;;;;;5064147;28;20020;-64
2021/05/31 13:38:35;;;;;;;4.93;2.97;;;;;;;;;;5065922;28;20486;-65
2021/05/31 13:41:00;;;;;;;3.53;2.20;;;;;;;;;;5072968;28;20073;-64
2021/05/31 13:43:26;;;;;;;4.47;2.85;;;;;;;;;;5072897;28;20020;-64
2021/05/31 13:45:52;;;;;;;6.88;2.85;;;;;;;;;;5075701;28;20107;-64
2021/05/31 13:48:18;;;;;;;5.20;3.22;;;;;;;;;;5071832;28;20039;-64
2021/05/31 13:50:45;;;;;;;6.80;2.72;;;;;;;;;;5075554;28;20738;-64
2021/05/31 13:53:10;;;;;;;5.97;3.03;;;;;;;;;;5074820;28;20074;-64
2021/05/31 13:55:36;;;;;;;4.03;2.65;;;;;;;;;;5073255;28;20055;-64
2021/05/31 13:58:01;;;;;;;3.83;2.30;;;;;;;;;;5071275;28;20024;-64
2021/05/31 14:00:27;;;;;;;4.63;3.00;;;;;;;;;;5076122;28;20119;-64
2021/05/31 14:02:56;;;;;;;6.60;3.00;;;;;;;;;;5072531;28;20048;-64
2021/05/31 14:05:29;;;;;;;4.82;3.00;;;;;;;;;;5075049;28;20025;-64
2021/05/31 14:07:55;;;;;;;3.25;2.63;;;;;;;;;;5075745;28;20114;-64
2021/05/31 14:10:21;;;;;;;5.13;2.75;;;;;;;;;;5069565;28;20047;-64
2021/05/31 14:12:47;;;;;;;7.30;3.00;;;;;;;;;;5071936;28;20039;-64
2021/05/31 14:15:13;;;;;;;5.20;2.97;;;;;;;;;;5073218;28;20027;-64
2021/05/31 14:17:41;;;;;;;3.28;2.30;;;;;;;;;;5072433;28;20025;-64
2021/05/31 14:20:06;;;;;;;7.57;3.03;;;;;;;;;;5072415;28;21463;-64
2021/05/31 14:22:31;;;;;;;4.63;2.80;;;;;;;;;;5072215;28;20032;-64
2021/05/31 14:24:57;;;;;;;6.80;2.80;;;;;;;;;;5072000;28;20027;-64
2021/05/31 14:27:22;;;;;;;5.73;3.07;;;;;;;;;;5072498;28;20272;-64
2021/05/31 14:29:47;;;;;;;3.90;2.38;;;;;;;;;;5071392;28;20265;-64
2021/05/31 14:32:13;;;;;;;5.43;2.65;;;;;;;;;;5071466;28;20510;-64
2021/05/31 14:34:38;;;;;;;6.68;2.83;;;;;;;;;;5072285;28;20663;-64
2021/05/31 14:37:04;;;;;;;3.85;2.65;;;;;;;;;;5071989;28;20078;-64
2021/05/31 14:39:29;;;;;;;3.75;2.55;;;;;;;;;;5072874;28;20023;-64
2021/05/31 14:41:54;;;;;;;3.63;2.55;;;;;;;;;;5070791;28;20031;-64
2021/05/31 14:44:19;;;;;;;4.57;2.53;;;;;;;;;;5072300;28;20048;-64
2021/05/31 14:46:45;;;;;;;6.15;2.90;;;;;;;;;;5073746;28;20032;-64
2021/05/31 14:49:10;;;;;;;5.63;3.47;;;;;;;;;;5080083;28;20020;-64
2021/05/31 14:51:35;;;;;;;5.82;2.70;;;;;;;;;;5081457;28;20043;-64